Babson Park, Massachusetts
Current Conditions -  °F | °C
As of 2:53 PM on Monday 26 Jan 2015 (Local Time) from KOWD Reporting Station
Light Snow Light Snow  
Wind Chill: 18°   Ceiling: 2300
Heat Index: 28°   Visibility: 9mi
Dew Point: 21°   Wind: 12mph
Humidity: 75%   Direction: 50°NE
Pressure: 30.02"   Gusts: NA
Location:  42.3°N, 71.26°W
Report Text: KOWD 261953Z 05010KT 9SM -SN OVC023 M02/M06 A3002 RMK AO2 SLP167 P0000 T10221061
Loading
Personal Weather Stations






























Interactive Weather Map New forecast layout! Learn more

10-Day Weather Forecast

Advertisements
Track Severe Weather on mobile